Terminal Aerodrome Forecast
Issued by NWS

Home | Current Version | Previous Version | Graphics & Text | Print | Product List | Glossary On
Versions: 1 2 3 4 5 6 7 8 9 10 11 12 13 14
000
FTUS43 KPAH 050520
TAFOWB
TAF
KOWB 050520Z 0506/0606 34007KT P6SM BKN100
     FM051400 34012G22KT P6SM BKN050
     FM051800 34014G24KT P6SM BKN050
     FM060100 34008KT P6SM SCT050 BKN100=

USA.gov is the U.S. government's official web portal to all federal, state and local government web resources and services.